createdAt,value
2022-07-31T00:01:21.480Z,2.20
2022-07-31T00:03:48.173Z,2.80
2022-07-31T00:06:14.882Z,2.10
2022-07-31T00:08:41.549Z,2.00
2022-07-31T00:11:11.519Z,1.80
2022-07-31T00:13:57.120Z,1.67
2022-07-31T00:16:25.105Z,2.03
2022-07-31T00:18:51.708Z,2.30
2022-07-31T00:21:18.697Z,1.67
2022-07-31T00:23:45.409Z,1.73
2022-07-31T00:26:11.986Z,1.60
2022-07-31T00:28:38.768Z,1.30
2022-07-31T00:31:05.385Z,1.70
2022-07-31T00:33:31.974Z,1.80
2022-07-31T00:35:58.629Z,1.67
2022-07-31T00:38:26.797Z,1.63
2022-07-31T00:40:54.093Z,1.80
2022-07-31T00:43:20.740Z,1.57
2022-07-31T00:45:56.377Z,1.40
2022-07-31T00:48:26.074Z,1.73
2022-07-31T00:50:54.934Z,1.60
2022-07-31T00:53:21.584Z,1.30
2022-07-31T00:55:52.006Z,1.47
2022-07-31T00:58:19.859Z,1.60
2022-07-31T01:00:46.604Z,1.40
2022-07-31T01:03:13.303Z,1.30
2022-07-31T01:05:40.018Z,1.33
2022-07-31T01:08:06.628Z,1.50
2022-07-31T01:10:33.177Z,1.60
2022-07-31T01:13:05.348Z,1.70
2022-07-31T01:15:32.067Z,1.70
2022-07-31T01:17:59.737Z,1.50
2022-07-31T01:20:28.189Z,1.60
2022-07-31T01:23:16.341Z,1.53
2022-07-31T01:26:02.002Z,1.90
2022-07-31T01:28:50.241Z,1.20
2022-07-31T01:31:27.485Z,1.63
2022-07-31T01:34:03.836Z,1.47
2022-07-31T01:36:34.768Z,1.60
2022-07-31T01:39:02.334Z,1.40
2022-07-31T01:41:33.799Z,1.93
2022-07-31T01:44:03.205Z,1.73
2022-07-31T01:46:37.312Z,1.50
2022-07-31T01:49:09.629Z,1.70
2022-07-31T01:51:38.983Z,1.57
2022-07-31T01:54:06.297Z,1.43
2022-07-31T01:56:34.634Z,1.50
2022-07-31T01:59:02.349Z,1.30
2022-07-31T02:01:30.659Z,1.40
2022-07-31T02:04:00.710Z,1.50
2022-07-31T02:06:28.241Z,1.50
2022-07-31T02:08:56.267Z,1.67
2022-07-31T02:11:23.739Z,1.63
2022-07-31T02:13:52.088Z,2.07
2022-07-31T02:16:20.365Z,1.87
2022-07-31T02:18:50.874Z,1.70
2022-07-31T02:21:17.638Z,1.70
2022-07-31T02:23:44.565Z,1.50
2022-07-31T02:26:11.783Z,1.73
2022-07-31T02:28:41.985Z,1.80
2022-07-31T02:31:11.829Z,1.63
2022-07-31T02:33:41.719Z,1.80
2022-07-31T02:36:09.346Z,1.70
2022-07-31T02:38:37.285Z,1.67
2022-07-31T02:41:05.175Z,1.77
2022-07-31T02:43:34.734Z,1.90
2022-07-31T02:46:02.521Z,1.87
2022-07-31T02:48:29.864Z,1.70
2022-07-31T02:50:57.306Z,1.80
2022-07-31T02:53:24.802Z,1.63
2022-07-31T02:55:52.234Z,1.73
2022-07-31T02:58:18.870Z,2.00
2022-07-31T03:00:45.892Z,1.60
2022-07-31T03:03:13.238Z,1.80
2022-07-31T03:05:39.882Z,1.60
2022-07-31T03:08:06.509Z,1.80
2022-07-31T03:10:33.189Z,1.67
2022-07-31T03:13:02.494Z,1.93
2022-07-31T03:15:30.476Z,2.20
2022-07-31T03:17:58.372Z,1.90
2022-07-31T03:20:26.305Z,2.00
2022-07-31T03:22:53.072Z,1.80
2022-07-31T03:25:21.253Z,1.97
2022-07-31T03:27:56.107Z,1.93
2022-07-31T03:30:26.426Z,2.10
2022-07-31T03:32:54.082Z,1.90
2022-07-31T03:35:20.995Z,1.87
2022-07-31T03:37:47.656Z,1.50
2022-07-31T03:40:14.406Z,1.83
2022-07-31T03:42:41.966Z,2.10
2022-07-31T03:45:10.764Z,1.87
2022-07-31T03:47:37.754Z,1.57
2022-07-31T03:50:06.227Z,2.80
2022-07-31T03:52:32.918Z,2.20
2022-07-31T03:54:59.705Z,1.97
2022-07-31T03:57:29.135Z,2.20
2022-07-31T04:00:00.252Z,2.10
2022-07-31T04:02:28.899Z,2.37
2022-07-31T04:04:57.093Z,2.60
2022-07-31T04:07:24.483Z,2.20
2022-07-31T04:09:51.521Z,2.17
2022-07-31T04:12:18.255Z,1.90
2022-07-31T04:14:45.133Z,1.80
2022-07-31T04:17:12.052Z,1.90
2022-07-31T04:19:39.227Z,2.17
2022-07-31T04:22:06.644Z,2.40
2022-07-31T04:24:33.748Z,2.00
2022-07-31T04:27:00.542Z,2.00
2022-07-31T04:29:29.928Z,2.17
2022-07-31T04:31:56.824Z,2.20
2022-07-31T04:34:23.462Z,2.13
2022-07-31T04:36:50.140Z,2.33
2022-07-31T04:39:16.901Z,2.13
2022-07-31T04:41:44.132Z,2.10
2022-07-31T04:44:10.893Z,2.27
2022-07-31T04:46:37.773Z,2.20
2022-07-31T04:49:04.531Z,2.10
2022-07-31T04:51:31.212Z,2.60
2022-07-31T04:53:57.846Z,2.30
2022-07-31T04:56:33.309Z,2.40
2022-07-31T04:59:06.483Z,2.77
2022-07-31T05:01:34.099Z,2.43
2022-07-31T05:04:01.426Z,2.60
2022-07-31T05:06:39.579Z,2.97
2022-07-31T05:09:13.621Z,2.70
2022-07-31T05:11:45.206Z,2.57
2022-07-31T05:14:13.885Z,2.50
2022-07-31T05:16:40.644Z,2.60
2022-07-31T05:19:13.904Z,2.10
2022-07-31T05:21:46.928Z,2.40
2022-07-31T05:24:32.688Z,2.30
2022-07-31T05:27:01.903Z,1.93
2022-07-31T05:29:28.853Z,2.10
2022-07-31T05:31:59.670Z,2.00
2022-07-31T05:34:29.199Z,2.40
2022-07-31T05:36:57.958Z,2.50
2022-07-31T05:39:25.114Z,2.50
2022-07-31T05:41:52.651Z,2.10
2022-07-31T05:44:19.328Z,2.23
2022-07-31T05:46:45.966Z,1.87
2022-07-31T05:49:12.777Z,2.77
2022-07-31T05:51:43.289Z,1.97
2022-07-31T05:54:09.883Z,2.17
2022-07-31T05:56:36.591Z,2.13
2022-07-31T05:59:03.358Z,2.70
2022-07-31T06:01:29.996Z,2.70
2022-07-31T06:03:56.674Z,2.40
2022-07-31T06:06:23.298Z,2.17
2022-07-31T06:08:49.916Z,2.30
2022-07-31T06:11:16.976Z,2.30
2022-07-31T06:13:43.829Z,2.43
2022-07-31T06:16:14.759Z,2.23
2022-07-31T06:18:42.339Z,2.17
2022-07-31T06:21:09.002Z,2.03
2022-07-31T06:23:35.632Z,2.30
2022-07-31T06:26:02.609Z,2.13
2022-07-31T06:28:47.745Z,2.20
2022-07-31T06:31:17.815Z,2.00
2022-07-31T06:33:48.427Z,2.03
2022-07-31T06:36:16.309Z,2.67
2022-07-31T06:38:42.943Z,2.07
2022-07-31T06:41:09.783Z,2.27
2022-07-31T06:43:36.393Z,2.37
2022-07-31T06:46:03.042Z,2.40
2022-07-31T06:48:29.720Z,2.30
2022-07-31T06:51:14.591Z,2.23
2022-07-31T06:53:43.058Z,2.27
2022-07-31T06:56:09.844Z,2.57
2022-07-31T06:58:36.432Z,2.37
2022-07-31T07:01:03.082Z,2.20
2022-07-31T07:03:29.781Z,2.40
2022-07-31T07:05:56.468Z,2.13
2022-07-31T07:08:23.650Z,2.50
2022-07-31T07:10:50.253Z,2.13
2022-07-31T07:13:17.133Z,2.30
2022-07-31T07:15:43.721Z,2.00
2022-07-31T07:18:10.348Z,2.03
2022-07-31T07:20:37.210Z,2.20
2022-07-31T07:23:03.859Z,2.57
2022-07-31T07:25:30.608Z,2.20
2022-07-31T07:27:57.209Z,1.93
2022-07-31T07:30:24.077Z,2.10
2022-07-31T07:32:50.817Z,1.97
2022-07-31T07:35:17.477Z,2.20
2022-07-31T07:37:44.134Z,2.30
2022-07-31T07:40:11.581Z,2.30
2022-07-31T07:42:38.210Z,2.33
2022-07-31T07:45:08.063Z,2.10
2022-07-31T07:47:53.723Z,2.80
2022-07-31T07:50:22.707Z,2.23
2022-07-31T07:52:55.744Z,2.03
2022-07-31T07:55:22.346Z,2.30
2022-07-31T07:57:49.023Z,2.10
2022-07-31T08:00:16.194Z,2.23
2022-07-31T08:02:44.850Z,2.20
2022-07-31T08:05:29.293Z,2.10
2022-07-31T08:07:55.903Z,2.10
2022-07-31T08:10:22.557Z,2.27
2022-07-31T08:12:50.301Z,2.80
2022-07-31T08:15:16.934Z,2.20
2022-07-31T08:17:43.566Z,2.03
2022-07-31T08:20:10.736Z,2.20
2022-07-31T08:22:37.640Z,2.10
2022-07-31T08:25:05.341Z,1.80
2022-07-31T08:27:40.010Z,2.17
2022-07-31T08:30:08.020Z,1.87
2022-07-31T08:32:34.677Z,2.37
2022-07-31T08:35:01.863Z,1.70
2022-07-31T08:37:59.182Z,2.40
2022-07-31T08:40:17.775Z,2.13
2022-07-31T08:42:46.162Z,2.13
2022-07-31T08:45:13.793Z,1.93
2022-07-31T08:47:46.240Z,2.00
2022-07-31T08:50:15.232Z,2.10
2022-07-31T08:52:44.724Z,2.33
2022-07-31T08:55:24.702Z,2.03
2022-07-31T08:57:59.654Z,2.13
2022-07-31T09:00:28.685Z,2.17
2022-07-31T09:02:55.510Z,2.20
2022-07-31T09:05:22.783Z,1.93
2022-07-31T09:07:49.417Z,2.03
2022-07-31T09:10:27.408Z,2.30
2022-07-31T09:12:55.534Z,2.00
2022-07-31T09:15:30.066Z,2.40
2022-07-31T09:17:57.324Z,1.90
2022-07-31T09:20:29.357Z,2.20
2022-07-31T09:23:06.943Z,2.23
2022-07-31T09:25:33.624Z,1.93
2022-07-31T09:28:07.497Z,2.03
2022-07-31T09:30:34.777Z,2.28
2022-07-31T09:33:16.326Z,2.17
2022-07-31T09:35:51.329Z,2.10
2022-07-31T09:38:18.429Z,2.35
2022-07-31T09:40:57.530Z,2.33
2022-07-31T09:43:25.788Z,2.28
2022-07-31T09:46:02.175Z,2.10
2022-07-31T09:48:29.369Z,2.38
2022-07-31T09:50:59.577Z,2.28
2022-07-31T09:53:26.622Z,2.10
2022-07-31T09:55:55.428Z,2.20
2022-07-31T09:58:23.523Z,2.35
2022-07-31T10:00:53.303Z,2.38
2022-07-31T10:03:20.691Z,2.47
2022-07-31T10:05:48.091Z,2.58
2022-07-31T10:08:17.425Z,2.70
2022-07-31T10:10:45.176Z,2.50
2022-07-31T10:13:15.558Z,2.35
2022-07-31T10:15:45.426Z,2.28
2022-07-31T10:18:12.329Z,2.13
2022-07-31T10:20:43.929Z,2.50
2022-07-31T10:23:16.446Z,2.50
2022-07-31T10:25:53.404Z,2.50
2022-07-31T10:28:21.668Z,2.05
2022-07-31T10:30:49.088Z,2.20
2022-07-31T10:33:41.962Z,2.60
2022-07-31T10:36:11.054Z,2.50
2022-07-31T10:38:47.516Z,2.53
2022-07-31T10:41:34.533Z,2.45
2022-07-31T10:44:07.257Z,2.20
2022-07-31T10:46:34.354Z,2.60
2022-07-31T10:49:01.369Z,2.30
2022-07-31T10:51:51.713Z,2.40
2022-07-31T10:54:18.381Z,2.85
2022-07-31T10:56:47.433Z,2.20
2022-07-31T10:59:14.153Z,3.10
2022-07-31T11:01:52.537Z,2.40
2022-07-31T11:04:28.126Z,2.58
2022-07-31T11:06:54.948Z,2.20
2022-07-31T11:09:23.253Z,2.30
2022-07-31T11:11:49.969Z,2.90
2022-07-31T11:14:16.671Z,2.25
2022-07-31T11:16:53.527Z,2.47
2022-07-31T11:19:20.206Z,2.80
2022-07-31T11:21:46.861Z,2.72
2022-07-31T11:24:14.830Z,3.72
2022-07-31T11:26:55.342Z,3.63
2022-07-31T11:30:01.551Z,3.35
2022-07-31T11:32:25.454Z,3.58
2022-07-31T11:34:57.044Z,3.92
2022-07-31T11:37:37.505Z,3.20
2022-07-31T11:40:17.199Z,3.40
2022-07-31T11:42:45.976Z,3.70
2022-07-31T11:45:15.233Z,3.78
2022-07-31T11:48:11.003Z,3.50
2022-07-31T11:50:43.039Z,3.92
2022-07-31T11:53:10.621Z,4.70
2022-07-31T11:56:09.674Z,3.42
2022-07-31T11:58:36.494Z,4.90
2022-07-31T12:01:05.191Z,4.22
2022-07-31T12:03:34.876Z,4.20
2022-07-31T12:06:01.821Z,3.70
2022-07-31T12:08:29.397Z,3.10
2022-07-31T12:10:57.938Z,2.40
2022-07-31T12:13:25.725Z,2.83
2022-07-31T12:16:07.929Z,2.80
2022-07-31T12:18:51.367Z,2.90
2022-07-31T12:21:19.713Z,2.67
2022-07-31T12:23:47.310Z,2.70
2022-07-31T12:26:23.358Z,2.60
2022-07-31T12:29:07.619Z,2.57
2022-07-31T12:32:04.224Z,2.60
2022-07-31T12:34:39.410Z,2.85
2022-07-31T12:37:12.563Z,2.92
2022-07-31T12:40:00.372Z,2.37
2022-07-31T12:42:41.581Z,2.70
2022-07-31T12:45:19.564Z,3.00
2022-07-31T12:47:51.236Z,3.07
2022-07-31T12:50:19.483Z,2.93
2022-07-31T12:52:46.149Z,3.20
2022-07-31T12:55:12.787Z,3.23
2022-07-31T12:57:50.293Z,2.97
2022-07-31T13:00:23.562Z,4.00
2022-07-31T13:02:51.815Z,2.83
2022-07-31T13:05:18.619Z,3.17
2022-07-31T13:07:45.333Z,3.90
2022-07-31T13:10:20.318Z,3.53
2022-07-31T13:12:51.309Z,3.17
2022-07-31T13:15:20.755Z,4.10
2022-07-31T13:17:50.741Z,3.80
2022-07-31T13:20:18.180Z,3.47
2022-07-31T13:22:44.828Z,4.30
2022-07-31T13:25:11.453Z,3.67
2022-07-31T13:27:38.118Z,3.97
2022-07-31T13:30:05.625Z,3.80
2022-07-31T13:32:32.401Z,4.70
2022-07-31T13:35:19.818Z,4.43
2022-07-31T13:37:46.811Z,4.53
2022-07-31T13:40:13.842Z,4.63
2022-07-31T13:42:40.456Z,5.67
2022-07-31T13:45:08.563Z,5.47
2022-07-31T13:47:50.405Z,5.10
2022-07-31T13:50:18.798Z,6.50
2022-07-31T13:52:45.593Z,6.00
2022-07-31T13:55:12.291Z,5.37
2022-07-31T13:57:38.951Z,6.70
2022-07-31T14:00:06.262Z,6.90
2022-07-31T14:02:33.002Z,6.00
2022-07-31T14:04:59.636Z,8.37
2022-07-31T14:07:45.339Z,7.13
2022-07-31T14:10:18.475Z,8.57
2022-07-31T14:12:46.904Z,7.40
2022-07-31T14:15:13.646Z,7.17
2022-07-31T14:17:40.439Z,8.87
2022-07-31T14:20:07.633Z,8.10
2022-07-31T14:22:34.319Z,9.00
2022-07-31T14:25:00.985Z,10.23
2022-07-31T14:27:27.594Z,10.50
2022-07-31T14:29:54.258Z,10.67
2022-07-31T14:32:22.060Z,10.40
2022-07-31T14:34:51.941Z,10.40
2022-07-31T14:37:19.965Z,10.20
2022-07-31T14:39:46.695Z,9.97
2022-07-31T14:42:13.281Z,9.90
2022-07-31T14:44:41.997Z,10.20
2022-07-31T14:47:11.016Z,10.13
2022-07-31T14:50:10.674Z,10.93
2022-07-31T14:52:24.950Z,10.20
2022-07-31T14:54:53.806Z,10.63
2022-07-31T14:57:22.530Z,10.30
2022-07-31T14:59:50.235Z,10.40
2022-07-31T15:02:21.786Z,10.13
2022-07-31T15:04:49.481Z,11.23
2022-07-31T15:07:34.812Z,11.13
2022-07-31T15:10:05.105Z,11.63
2022-07-31T15:12:31.860Z,10.63
2022-07-31T15:14:58.532Z,11.70
2022-07-31T15:17:25.513Z,12.07
2022-07-31T15:19:52.327Z,12.03
2022-07-31T15:22:19.248Z,12.03
2022-07-31T15:24:48.709Z,12.23
2022-07-31T15:27:16.472Z,13.93
2022-07-31T15:30:05.866Z,12.53
2022-07-31T15:32:30.125Z,13.17
2022-07-31T15:34:56.762Z,13.07
2022-07-31T15:37:23.593Z,13.07
2022-07-31T15:40:01.933Z,13.83
2022-07-31T15:42:32.143Z,14.30
2022-07-31T15:44:58.763Z,13.20
2022-07-31T15:47:25.507Z,13.93
2022-07-31T15:49:52.123Z,12.83
2022-07-31T15:52:19.654Z,14.07
2022-07-31T15:54:46.916Z,13.33
2022-07-31T15:57:13.767Z,13.50
2022-07-31T15:59:41.598Z,12.83
2022-07-31T16:02:08.258Z,13.17
2022-07-31T16:04:36.605Z,12.27
2022-07-31T16:08:31.203Z,13.30
2022-07-31T16:10:14.910Z,12.37
2022-07-31T16:12:43.013Z,12.53
2022-07-31T16:15:11.266Z,12.60
2022-07-31T16:17:38.048Z,10.70
2022-07-31T16:20:08.343Z,11.23
2022-07-31T16:22:36.285Z,11.47
2022-07-31T16:25:03.713Z,11.07
2022-07-31T16:27:30.358Z,11.40
2022-07-31T16:29:58.779Z,11.17
2022-07-31T16:32:29.013Z,10.80
2022-07-31T16:34:59.987Z,9.30
2022-07-31T16:37:50.461Z,10.33
2022-07-31T16:40:28.703Z,9.73
2022-07-31T16:43:00.821Z,9.97
2022-07-31T16:45:28.182Z,10.43
2022-07-31T16:47:54.832Z,10.37
2022-07-31T16:50:21.518Z,10.13
2022-07-31T16:52:52.720Z,9.17
2022-07-31T16:55:21.826Z,10.60
2022-07-31T16:58:11.527Z,10.03
2022-07-31T17:00:39.251Z,9.90
2022-07-31T17:03:05.984Z,11.03
2022-07-31T17:05:32.610Z,10.43
2022-07-31T17:07:59.280Z,10.50
2022-07-31T17:10:27.003Z,11.33
2022-07-31T17:12:53.873Z,11.23
2022-07-31T17:15:20.645Z,10.67
2022-07-31T17:17:47.441Z,10.20
2022-07-31T17:20:15.010Z,9.60
2022-07-31T17:22:41.698Z,11.03
2022-07-31T17:25:10.133Z,10.27
2022-07-31T17:27:36.720Z,10.67
2022-07-31T17:30:04.106Z,12.07
2022-07-31T17:32:32.265Z,10.90
2022-07-31T17:34:58.852Z,10.60
2022-07-31T17:37:25.842Z,10.23
2022-07-31T17:39:55.156Z,11.37
2022-07-31T17:42:25.353Z,9.87
2022-07-31T17:47:07.065Z,10.50
2022-07-31T17:47:40.135Z,11.07
2022-07-31T17:50:07.291Z,11.03
2022-07-31T17:52:33.954Z,11.40
2022-07-31T17:55:01.294Z,11.73
2022-07-31T17:57:30.301Z,11.50
2022-07-31T17:59:58.024Z,10.07
2022-07-31T18:02:24.715Z,11.20
2022-07-31T18:04:51.397Z,10.17
2022-07-31T18:07:19.473Z,11.20
2022-07-31T18:09:46.227Z,10.80
2022-07-31T18:12:15.690Z,11.77
2022-07-31T18:14:42.906Z,10.50
2022-07-31T18:17:09.587Z,10.27
2022-07-31T18:19:36.253Z,10.40
2022-07-31T18:22:03.333Z,9.10
2022-07-31T18:24:30.213Z,9.33
2022-07-31T18:26:56.888Z,10.50
2022-07-31T18:29:23.701Z,10.43
2022-07-31T18:31:50.301Z,10.77
2022-07-31T18:34:16.995Z,11.23
2022-07-31T18:36:44.045Z,11.37
2022-07-31T18:39:10.823Z,10.03
2022-07-31T18:41:38.181Z,10.13
2022-07-31T18:44:04.950Z,9.03
2022-07-31T18:46:32.151Z,9.73
2022-07-31T18:48:59.309Z,8.77
2022-07-31T18:51:27.046Z,8.90
2022-07-31T18:53:54.408Z,8.53
2022-07-31T18:56:22.997Z,8.70
2022-07-31T18:58:49.716Z,8.17
2022-07-31T19:01:16.384Z,8.07
2022-07-31T19:03:43.056Z,7.33
2022-07-31T19:06:09.696Z,7.13
2022-07-31T19:08:36.388Z,6.83
2022-07-31T19:11:03.002Z,6.50
2022-07-31T19:13:29.682Z,6.17
2022-07-31T19:15:56.256Z,6.50
2022-07-31T19:18:28.150Z,5.30
2022-07-31T19:21:17.773Z,5.07
2022-07-31T19:23:45.223Z,4.43
2022-07-31T19:26:11.881Z,4.63
2022-07-31T19:28:45.388Z,3.20
2022-07-31T19:31:13.591Z,2.00
2022-07-31T19:33:40.776Z,1.80
2022-07-31T19:36:07.650Z,1.40
2022-07-31T19:38:37.741Z,1.30
2022-07-31T19:41:04.636Z,1.13
2022-07-31T19:43:31.511Z,1.63
2022-07-31T19:46:10.323Z,1.43
2022-07-31T19:48:42.368Z,1.53
2022-07-31T19:51:09.902Z,1.60
2022-07-31T19:53:37.304Z,1.47
2022-07-31T19:56:06.050Z,1.33
2022-07-31T19:58:34.483Z,1.70
2022-07-31T20:01:01.359Z,1.37
2022-07-31T20:03:28.166Z,1.70
2022-07-31T20:05:56.150Z,1.40
2022-07-31T20:08:23.309Z,1.70
2022-07-31T20:10:49.943Z,1.60
2022-07-31T20:13:18.355Z,1.50
2022-07-31T20:15:51.390Z,1.40
2022-07-31T20:18:27.371Z,1.40
2022-07-31T20:20:57.386Z,1.13
2022-07-31T20:23:25.023Z,1.30
2022-07-31T20:25:51.677Z,1.13
2022-07-31T20:28:18.361Z,1.13
2022-07-31T20:30:45.049Z,1.13
2022-07-31T20:33:13.436Z,1.10
2022-07-31T20:35:49.466Z,1.20
2022-07-31T20:38:21.064Z,1.10
2022-07-31T20:40:54.488Z,0.93
2022-07-31T20:43:27.228Z,1.17
2022-07-31T20:45:57.244Z,1.30
2022-07-31T20:48:31.263Z,1.37
2022-07-31T20:51:00.200Z,1.07
2022-07-31T20:53:27.312Z,1.00
2022-07-31T20:55:54.034Z,1.20
2022-07-31T20:58:22.352Z,1.00
2022-07-31T21:00:49.984Z,1.20
2022-07-31T21:03:17.440Z,0.90
2022-07-31T21:05:45.339Z,1.00
2022-07-31T21:08:12.315Z,0.70
2022-07-31T21:10:39.003Z,0.90
2022-07-31T21:13:05.670Z,0.80
2022-07-31T21:15:44.133Z,0.90
2022-07-31T21:18:16.177Z,0.90
2022-07-31T21:20:50.726Z,0.77
2022-07-31T21:23:24.274Z,0.70
2022-07-31T21:25:58.654Z,0.50
2022-07-31T21:28:27.290Z,0.90
2022-07-31T21:30:55.839Z,0.70
2022-07-31T21:33:24.501Z,0.67
2022-07-31T21:35:51.669Z,0.80
2022-07-31T21:38:18.705Z,0.70
2022-07-31T21:40:48.370Z,0.70
2022-07-31T21:43:18.745Z,0.50
2022-07-31T21:45:54.911Z,0.77
2022-07-31T21:48:26.367Z,0.70
2022-07-31T21:50:54.064Z,0.90
2022-07-31T21:53:21.100Z,1.20
2022-07-31T21:55:47.935Z,0.90
2022-07-31T21:58:14.877Z,0.83
2022-07-31T22:00:41.659Z,0.83
2022-07-31T22:03:08.401Z,0.97
2022-07-31T22:05:53.846Z,0.67
2022-07-31T22:08:20.890Z,0.80
2022-07-31T22:10:50.237Z,1.07
2022-07-31T22:13:16.941Z,1.00
2022-07-31T22:15:58.294Z,0.90
2022-07-31T22:18:28.848Z,0.83
2022-07-31T22:20:56.127Z,1.10
2022-07-31T22:23:23.039Z,1.00
2022-07-31T22:25:49.961Z,1.10
2022-07-31T22:28:21.573Z,1.00
2022-07-31T22:30:48.783Z,1.13
2022-07-31T22:33:15.942Z,1.17
2022-07-31T22:35:43.106Z,1.10
2022-07-31T22:38:11.481Z,0.90
2022-07-31T22:40:38.222Z,1.00
2022-07-31T22:43:08.320Z,0.90
2022-07-31T22:45:53.545Z,0.90
2022-07-31T22:48:24.199Z,1.20
2022-07-31T22:50:50.873Z,1.00
2022-07-31T22:53:17.595Z,1.10
2022-07-31T22:55:44.270Z,1.37
2022-07-31T22:58:11.367Z,1.30
2022-07-31T23:00:38.489Z,1.20
2022-07-31T23:03:05.236Z,1.10
2022-07-31T23:06:03.590Z,1.20
2022-07-31T23:08:19.036Z,1.33
2022-07-31T23:10:45.723Z,1.47
2022-07-31T23:13:12.346Z,1.60
2022-07-31T23:15:38.970Z,1.30
2022-07-31T23:18:05.650Z,1.13
2022-07-31T23:20:32.269Z,1.40
2022-07-31T23:22:58.895Z,1.30
2022-07-31T23:25:25.570Z,1.70
2022-07-31T23:27:52.216Z,1.53
2022-07-31T23:30:18.843Z,1.67
2022-07-31T23:32:45.432Z,1.93
2022-07-31T23:35:12.263Z,1.90
2022-07-31T23:37:38.974Z,1.93
2022-07-31T23:40:06.298Z,2.33
2022-07-31T23:42:38.826Z,1.67
2022-07-31T23:45:12.158Z,2.00
2022-07-31T23:47:46.134Z,2.13
2022-07-31T23:50:14.889Z,2.10
2022-07-31T23:52:42.912Z,2.30
2022-07-31T23:55:10.138Z,2.50
2022-07-31T23:57:37.091Z,2.23
